Time;durP1;ratioP1;P1;durP2;ratioP2;P2;SDS_P1;SDS_P2;PMS_P1;PMS_P2;Temp;Humidity;BMP_temperature;BMP_pressure;BME280_temperature;BME280_humidity;BME280_pressure;Samples;Min_cycle;Max_cycle;Signal;HPM_P1;HPM_P2
2023/10/25 00:02:05;;;;;;;;;;;9.90;99.90;;;;;;21362948;27;19911;-80
2023/10/25 00:12:06;;;;;;;;;;;9.50;99.90;;;;;;21363489;27;19912;-81
2023/10/25 00:22:07;;;;;;;;;;;9.50;99.90;;;;;;21371873;27;19915;-81
2023/10/25 00:32:14;;;;;;;;;;;9.60;99.90;;;;;;21347156;27;19919;-81
2023/10/25 00:42:15;;;;;;;;;;;9.10;99.90;;;;;;21358355;27;19918;-79
2023/10/25 00:52:15;;;;;;;;;;;9.00;99.90;;;;;;21343116;27;19911;-81
2023/10/25 01:02:16;;;;;;;;;;;9.20;99.90;;;;;;21349813;27;20273;-81
2023/10/25 01:12:17;;;;;;;;;;;9.00;99.90;;;;;;21341005;27;20574;-80
2023/10/25 01:22:17;;;;;;;;;;;8.50;99.90;;;;;;21367922;27;19917;-79
2023/10/25 01:32:18;;;;;;;;;;;8.90;99.90;;;;;;21372916;27;19915;-80
2023/10/25 01:42:19;;;;;;;;;;;8.90;99.90;;;;;;21336350;27;20370;-80
2023/10/25 01:52:19;;;;;;;;;;;8.80;99.90;;;;;;21368353;27;19976;-81
2023/10/25 02:02:22;;;;;;;;;;;8.70;99.90;;;;;;21343623;27;19915;-81
2023/10/25 02:12:23;;;;;;;;;;;8.90;99.90;;;;;;21334619;27;19922;-80
2023/10/25 02:22:24;;;;;;;;;;;8.80;99.90;;;;;;21345144;27;19915;-80
2023/10/25 02:32:24;;;;;;;;;;;8.70;99.90;;;;;;21350617;27;19922;-81
2023/10/25 02:42:25;;;;;;;;;;;8.80;99.90;;;;;;21371274;27;19915;-81
2023/10/25 02:52:26;;;;;;;;;;;9.00;99.90;;;;;;21332886;27;20281;-81
2023/10/25 03:02:26;;;;;;;;;;;9.00;99.90;;;;;;21363418;27;20009;-80
2023/10/25 03:12:27;;;;;;;;;;;9.10;99.90;;;;;;21369912;27;19926;-80
2023/10/25 03:22:28;;;;;;;;;;;9.10;99.90;;;;;;21363547;27;19923;-80
2023/10/25 03:32:29;;;;;;;;;;;9.20;99.90;;;;;;21365769;27;19951;-80
2023/10/25 03:42:29;;;;;;;;;;;9.30;99.90;;;;;;21367272;27;19915;-80
2023/10/25 03:52:30;;;;;;;;;;;9.40;99.90;;;;;;21355854;27;20367;-80
2023/10/25 04:02:31;;;;;;;;;;;9.40;99.90;;;;;;21387015;27;19915;-80
2023/10/25 04:12:31;;;;;;;;;;;9.50;99.90;;;;;;21411001;27;19995;-80
2023/10/25 04:22:34;;;;;;;;;;;9.40;99.90;;;;;;21394949;27;19915;-80
2023/10/25 04:32:34;;;;;;;;;;;9.40;99.90;;;;;;21397579;27;19925;-80
2023/10/25 04:42:35;;;;;;;;;;;9.40;99.90;;;;;;21369320;27;19919;-80
2023/10/25 04:52:35;;;;;;;;;;;9.20;99.90;;;;;;21381072;27;19942;-80
2023/10/25 05:02:38;;;;;;;;;;;9.20;99.90;;;;;;21379850;27;19915;-81
2023/10/25 05:12:57;;;;;;;;;;;9.20;99.90;;;;;;21389587;27;20369;-80
2023/10/25 05:22:58;;;;;;;;;;;9.00;99.90;;;;;;21352981;27;20277;-80
2023/10/25 05:32:59;;;;;;;;;;;9.10;99.90;;;;;;21382960;27;19919;-80
2023/10/25 05:43:02;;;;;;;;;;;9.20;99.90;;;;;;21400308;27;19993;-79
2023/10/25 05:53:02;;;;;;;;;;;9.10;99.90;;;;;;21387061;27;19911;-80
2023/10/25 06:03:03;;;;;;;;;;;9.20;99.90;;;;;;21369418;27;19923;-80
2023/10/25 06:13:04;;;;;;;;;;;9.20;99.90;;;;;;21365974;27;19950;-78
2023/10/25 06:23:05;;;;;;;;;;;9.20;99.90;;;;;;21359336;27;19939;-77
2023/10/25 06:33:05;;;;;;;;;;;9.40;99.90;;;;;;21361809;27;19915;-80
2023/10/25 06:43:06;;;;;;;;;;;9.50;99.90;;;;;;21364191;27;19956;-80
2023/10/25 06:53:07;;;;;;;;;;;9.60;99.90;;;;;;21351170;27;19915;-80
2023/10/25 07:03:09;;;;;;;;;;;9.70;99.90;;;;;;21329066;27;19919;-80
2023/10/25 07:13:10;;;;;;;;;;;9.60;99.90;;;;;;21338424;27;19954;-78
2023/10/25 07:23:11;;;;;;;;;;;9.70;99.90;;;;;;21347170;27;20437;-79
2023/10/25 07:33:13;;;;;;;;;;;9.80;99.90;;;;;;21361589;27;19915;-79
2023/10/25 07:43:13;;;;;;;;;;;9.90;99.90;;;;;;21389221;27;20381;-79
2023/10/25 07:53:14;;;;;;;;;;;10.00;99.90;;;;;;21391333;27;19919;-80
2023/10/25 08:03:17;;;;;;;;;;;10.10;99.90;;;;;;21376142;27;19950;-79
2023/10/25 08:13:17;;;;;;;;;;;10.20;99.90;;;;;;21344487;27;19911;-81
2023/10/25 08:23:18;;;;;;;;;;;10.10;99.90;;;;;;21392585;27;19915;-79
2023/10/25 08:33:19;;;;;;;;;;;10.30;99.90;;;;;;21350441;27;19916;-79
2023/10/25 08:43:20;;;;;;;;;;;10.60;99.90;;;;;;21345711;27;20071;-78
2023/10/25 08:53:24;;;;;;;;;;;10.70;99.90;;;;;;21359119;27;19952;-81
2023/10/25 09:03:31;;;;;;;;;;;10.80;99.90;;;;;;21380111;27;20007;-79
2023/10/25 09:13:32;;;;;;;;;;;10.80;99.90;;;;;;21389272;27;19919;-79
2023/10/25 09:23:33;;;;;;;;;;;10.90;99.90;;;;;;21405959;27;19922;-79
2023/10/25 09:33:34;;;;;;;;;;;10.90;99.90;;;;;;21362950;27;20663;-80
2023/10/25 09:43:35;;;;;;;;;;;11.00;99.90;;;;;;21411010;27;19949;-80
2023/10/25 09:53:46;;;;;;;;;;;11.10;99.90;;;;;;21369278;27;19918;-80
2023/10/25 10:03:52;;;;;;;;;;;11.20;99.90;;;;;;21347242;27;19915;-79
2023/10/25 10:14:14;;;;;;;;;;;11.10;99.90;;;;;;21355571;27;20001;-78
2023/10/25 10:24:37;;;;;;;;;;;11.20;99.90;;;;;;21344256;27;19915;-79
2023/10/25 10:34:41;;;;;;;;;;;11.60;99.90;;;;;;21373862;27;19915;-77
2023/10/25 10:44:42;;;;;;;;;;;11.80;99.90;;;;;;21408970;27;19915;-78
2023/10/25 10:54:43;;;;;;;;;;;12.00;99.90;;;;;;21412762;27;20309;-80
2023/10/25 11:04:44;;;;;;;;;;;12.10;99.90;;;;;;21402622;27;19950;-80
2023/10/25 11:14:45;;;;;;;;;;;11.90;99.90;;;;;;21402847;27;19921;-80
2023/10/25 11:24:52;;;;;;;;;;;11.70;99.90;;;;;;21408822;27;20191;-78
2023/10/25 11:34:56;;;;;;;;;;;11.70;99.90;;;;;;21426675;27;19921;-79
2023/10/25 11:45:00;;;;;;;;;;;11.80;99.90;;;;;;21388802;27;19914;-79
2023/10/25 11:55:01;;;;;;;;;;;11.80;99.90;;;;;;21405131;27;19911;-79
2023/10/25 12:05:03;;;;;;;;;;;11.80;99.90;;;;;;21413745;27;19929;-78
2023/10/25 12:15:05;;;;;;;;;;;11.80;99.90;;;;;;21397403;27;19914;-80
2023/10/25 12:25:06;;;;;;;;;;;11.90;99.90;;;;;;21415321;27;19915;-79
2023/10/25 12:35:07;;;;;;;;;;;11.90;99.90;;;;;;21416680;27;19921;-78
2023/10/25 12:45:08;;;;;;;;;;;12.20;99.90;;;;;;21395151;27;19919;-77
2023/10/25 12:55:09;;;;;;;;;;;12.40;99.90;;;;;;21438363;27;19934;-80
2023/10/25 13:05:10;;;;;;;;;;;13.80;99.90;;;;;;21392546;27;19914;-79
2023/10/25 13:15:10;;;;;;;;;;;14.10;99.90;;;;;;21430487;27;20398;-80
2023/10/25 13:25:11;;;;;;;;;;;14.10;99.90;;;;;;21422112;27;19985;-81
2023/10/25 13:35:12;;;;;;;;;;;14.60;99.90;;;;;;21437009;27;20286;-78
2023/10/25 13:45:13;;;;;;;;;;;15.60;99.90;;;;;;21388644;27;20451;-80
2023/10/25 13:55:14;;;;;;;;;;;15.70;99.90;;;;;;21400943;27;19918;-82
2023/10/25 14:05:14;;;;;;;;;;;16.60;99.90;;;;;;21352588;27;20002;-81
2023/10/25 14:15:15;;;;;;;;;;;16.20;99.90;;;;;;21376842;27;20021;-78
2023/10/25 14:25:18;;;;;;;;;;;16.10;99.90;;;;;;21391048;27;21458;-78
2023/10/25 14:35:18;;;;;;;;;;;16.20;99.90;;;;;;21369009;27;20381;-80
2023/10/25 14:45:19;;;;;;;;;;;16.30;99.90;;;;;;21348278;27;19922;-80
2023/10/25 14:55:20;;;;;;;;;;;16.60;99.90;;;;;;21359566;27;19936;-80
2023/10/25 15:05:21;;;;;;;;;;;16.30;99.90;;;;;;21369745;27;19923;-80
2023/10/25 15:15:22;;;;;;;;;;;16.20;99.90;;;;;;21310833;27;19912;-80
2023/10/25 15:25:23;;;;;;;;;;;16.50;99.90;;;;;;21328628;27;19919;-77
2023/10/25 15:35:24;;;;;;;;;;;16.60;99.90;;;;;;21319599;27;19930;-78
2023/10/25 15:45:24;;;;;;;;;;;16.20;99.90;;;;;;21343699;27;19919;-81
2023/10/25 15:55:25;;;;;;;;;;;16.00;99.90;;;;;;21339249;27;19933;-78
2023/10/25 16:05:26;;;;;;;;;;;16.20;99.90;;;;;;21339331;27;19991;-79
2023/10/25 16:15:26;;;;;;;;;;;16.10;99.90;;;;;;21329965;27;19947;-79
2023/10/25 16:25:32;;;;;;;;;;;16.10;99.90;;;;;;21348961;27;19915;-79
2023/10/25 16:35:36;;;;;;;;;;;16.10;99.90;;;;;;21350471;27;19938;-79
2023/10/25 16:45:37;;;;;;;;;;;15.90;99.90;;;;;;21348004;27;19915;-80
2023/10/25 16:55:39;;;;;;;;;;;15.60;99.90;;;;;;21329685;27;19923;-80
2023/10/25 17:05:39;;;;;;;;;;;15.80;99.90;;;;;;21344030;27;19922;-78
2023/10/25 17:15:40;;;;;;;;;;;15.90;99.90;;;;;;21344004;27;19911;-80
2023/10/25 17:25:41;;;;;;;;;;;15.70;99.90;;;;;;21346667;27;19923;-80
2023/10/25 17:35:44;;;;;;;;;;;15.80;99.90;;;;;;21348113;27;19918;-82
2023/10/25 17:45:49;;;;;;;;;;;15.50;99.90;;;;;;21344697;27;19937;-80
2023/10/25 17:55:49;;;;;;;;;;;14.90;99.90;;;;;;21347093;27;20076;-79
2023/10/25 18:05:50;;;;;;;;;;;14.30;99.90;;;;;;21340031;27;19926;-78
2023/10/25 18:15:51;;;;;;;;;;;14.00;99.90;;;;;;21335430;27;20033;-81
2023/10/25 18:25:52;;;;;;;;;;;13.90;99.90;;;;;;21317349;27;19951;-81
2023/10/25 18:35:54;;;;;;;;;;;13.80;99.90;;;;;;21341448;27;19915;-79
2023/10/25 18:45:56;;;;;;;;;;;13.70;99.90;;;;;;21362734;27;19922;-80
2023/10/25 18:56:00;;;;;;;;;;;13.20;99.90;;;;;;21338237;27;19939;-80
2023/10/25 19:06:04;;;;;;;;;;;12.90;99.90;;;;;;21346388;27;19915;-79
2023/10/25 19:16:08;;;;;;;;;;;12.70;99.90;;;;;;21339834;27;19929;-80
2023/10/25 19:26:09;;;;;;;;;;;12.40;99.90;;;;;;21322703;27;19925;-80
2023/10/25 19:36:13;;;;;;;;;;;12.40;99.90;;;;;;21334708;27;19915;-79
2023/10/25 19:46:14;;;;;;;;;;;12.50;99.90;;;;;;21319989;27;19915;-80
2023/10/25 19:56:15;;;;;;;;;;;12.50;99.90;;;;;;21314114;27;19915;-79
2023/10/25 20:06:17;;;;;;;;;;;12.60;99.90;;;;;;21303801;27;19919;-80
2023/10/25 20:16:17;;;;;;;;;;;12.50;99.90;;;;;;21301436;27;19970;-79
2023/10/25 20:26:18;;;;;;;;;;;12.40;99.90;;;;;;21325945;27;19922;-78
2023/10/25 20:36:19;;;;;;;;;;;12.40;99.90;;;;;;21271718;27;19916;-79
2023/10/25 20:46:20;;;;;;;;;;;12.20;99.90;;;;;;21257021;27;20397;-79
2023/10/25 20:56:20;;;;;;;;;;;12.10;99.90;;;;;;21245434;27;19918;-80
2023/10/25 21:06:22;;;;;;;;;;;12.10;99.90;;;;;;21250207;27;19922;-78
2023/10/25 21:16:22;;;;;;;;;;;12.10;99.90;;;;;;21251768;27;19911;-79
2023/10/25 21:26:23;;;;;;;;;;;11.90;99.90;;;;;;21249896;27;20366;-78
2023/10/25 21:36:25;;;;;;;;;;;11.80;99.90;;;;;;21239757;27;20006;-79
2023/10/25 21:46:27;;;;;;;;;;;11.70;99.90;;;;;;21252288;27;19922;-78
2023/10/25 21:56:28;;;;;;;;;;;11.70;99.90;;;;;;21247412;27;19911;-78
2023/10/25 22:06:30;;;;;;;;;;;11.70;99.90;;;;;;21255193;27;19916;-79
2023/10/25 22:16:31;;;;;;;;;;;11.70;99.90;;;;;;21260231;27;20398;-78
2023/10/25 22:26:32;;;;;;;;;;;11.70;99.90;;;;;;21256241;27;19915;-79
2023/10/25 22:36:33;;;;;;;;;;;11.70;99.90;;;;;;21163680;27;19916;-79
2023/10/25 22:46:33;;;;;;;;;;;11.60;99.90;;;;;;21170129;27;19922;-79
2023/10/25 22:56:34;;;;;;;;;;;11.30;99.90;;;;;;21169829;28;20429;-79
2023/10/25 23:06:36;;;;;;;;;;;11.00;99.90;;;;;;21168996;28;19926;-79
2023/10/25 23:16:37;;;;;;;;;;;10.70;99.90;;;;;;21171123;28;19919;-79
2023/10/25 23:26:37;;;;;;;;;;;10.60;99.90;;;;;;21175281;28;20285;-79
2023/10/25 23:36:38;;;;;;;;;;;10.30;99.90;;;;;;21248889;27;19911;-76
2023/10/25 23:46:39;;;;;;;;;;;10.20;99.90;;;;;;21245309;27;19919;-79
2023/10/25 23:56:39;;;;;;;;;;;9.90;99.90;;;;;;21234056;27;19964;-78
